createdAt,value
2022-09-15T00:00:20.062Z,82.70
2022-09-15T00:01:20.127Z,81.69
2022-09-15T00:02:20.348Z,79.97
2022-09-15T00:03:20.233Z,79.67
2022-09-15T00:04:20.094Z,78.45
2022-09-15T00:05:20.580Z,79.06
2022-09-15T00:06:19.997Z,80.07
2022-09-15T00:07:19.956Z,80.92
2022-09-15T00:08:19.947Z,81.43
2022-09-15T00:09:20.015Z,82.20
2022-09-15T00:10:19.971Z,84.93
2022-09-15T00:11:20.910Z,86.45
2022-09-15T00:12:19.899Z,87.30
2022-09-15T00:13:19.928Z,87.40
2022-09-15T00:14:19.855Z,87.20
2022-09-15T00:15:19.892Z,86.39
2022-09-15T00:16:20.009Z,86.29
2022-09-15T00:17:19.808Z,85.88
2022-09-15T00:18:19.849Z,86.39
2022-09-15T00:19:19.879Z,86.90
2022-09-15T00:20:19.791Z,86.13
2022-09-15T00:21:19.923Z,85.99
2022-09-15T00:22:21.134Z,84.97
2022-09-15T00:23:19.768Z,83.15
2022-09-15T00:24:19.738Z,83.55
2022-09-15T00:25:19.731Z,84.47
2022-09-15T00:26:19.812Z,84.47
2022-09-15T00:27:19.705Z,84.91
2022-09-15T00:28:19.749Z,84.87
2022-09-15T00:29:19.678Z,82.44
2022-09-15T00:30:19.677Z,82.75
2022-09-15T00:31:19.692Z,83.59
2022-09-15T00:32:19.647Z,84.00
2022-09-15T00:33:19.634Z,83.90
2022-09-15T00:34:19.885Z,83.90
2022-09-15T00:35:19.666Z,82.38
2022-09-15T00:36:19.607Z,79.44
2022-09-15T00:37:19.589Z,77.98
2022-09-15T00:38:19.606Z,78.08
2022-09-15T00:39:19.563Z,78.63
2022-09-15T00:40:19.654Z,77.88
2022-09-15T00:41:19.558Z,76.87
2022-09-15T00:42:19.534Z,77.37
2022-09-15T00:43:19.523Z,78.33
2022-09-15T00:44:20.741Z,78.49
2022-09-15T00:45:19.501Z,77.37
2022-09-15T00:46:19.568Z,76.87
2022-09-15T00:47:20.099Z,76.16
2022-09-15T00:48:19.459Z,76.87
2022-09-15T00:49:19.443Z,76.16
2022-09-15T00:50:19.507Z,75.15
2022-09-15T00:51:19.532Z,74.95
2022-09-15T00:52:19.582Z,75.15
2022-09-15T00:53:19.445Z,76.06
2022-09-15T00:54:19.434Z,76.77
2022-09-15T00:55:19.459Z,75.76
2022-09-15T00:56:24.203Z,75.85
2022-09-15T00:57:19.459Z,75.85
2022-09-15T00:58:19.617Z,76.46
2022-09-15T00:59:19.374Z,76.06
2022-09-15T01:00:19.329Z,75.62
2022-09-15T01:01:19.502Z,75.92
2022-09-15T01:02:19.388Z,76.12
2022-09-15T01:03:19.391Z,76.32
2022-09-15T01:04:19.412Z,76.23
2022-09-15T01:05:20.162Z,76.73
2022-09-15T01:06:19.278Z,76.53
2022-09-15T01:07:19.272Z,76.12
2022-09-15T01:08:19.238Z,76.63
2022-09-15T01:09:19.261Z,76.93
2022-09-15T01:10:19.243Z,76.83
2022-09-15T01:11:19.234Z,77.95
2022-09-15T01:12:19.237Z,79.87
2022-09-15T01:13:19.202Z,80.82
2022-09-15T01:14:19.178Z,80.72
2022-09-15T01:15:19.188Z,81.02
2022-09-15T01:16:20.194Z,82.34
2022-09-15T01:17:19.150Z,83.96
2022-09-15T01:18:19.123Z,82.98
2022-09-15T01:19:19.151Z,82.78
2022-09-15T01:20:19.305Z,82.98
2022-09-15T01:21:19.203Z,82.48
2022-09-15T01:22:19.176Z,81.87
2022-09-15T01:23:19.082Z,82.28
2022-09-15T01:24:19.066Z,82.82
2022-09-15T01:25:19.043Z,83.33
2022-09-15T01:26:19.035Z,84.14
2022-09-15T01:27:41.112Z,84.64
2022-09-15T01:28:19.073Z,82.92
2022-09-15T01:29:21.253Z,82.82
2022-09-15T01:30:18.988Z,81.57
2022-09-15T01:31:19.050Z,79.74
2022-09-15T01:32:18.963Z,77.92
2022-09-15T01:33:18.961Z,75.99
2022-09-15T01:34:18.982Z,75.89
2022-09-15T01:35:18.938Z,75.79
2022-09-15T01:36:18.923Z,76.60
2022-09-15T01:37:18.906Z,75.49
2022-09-15T01:38:18.890Z,73.97
2022-09-15T01:39:18.884Z,74.17
2022-09-15T01:40:18.988Z,74.27
2022-09-15T01:41:18.886Z,73.97
2022-09-15T01:42:18.840Z,74.48
2022-09-15T01:43:18.841Z,74.48
2022-09-15T01:44:18.829Z,74.77
2022-09-15T01:45:18.830Z,74.37
2022-09-15T01:46:18.942Z,74.84
2022-09-15T01:47:18.795Z,75.15
2022-09-15T01:48:18.776Z,75.28
2022-09-15T01:49:18.780Z,75.15
2022-09-15T01:50:18.757Z,74.84
2022-09-15T01:51:18.759Z,73.93
2022-09-15T01:52:18.776Z,74.54
2022-09-15T01:53:18.741Z,74.54
2022-09-15T01:54:18.709Z,75.25
2022-09-15T01:55:18.706Z,81.26
2022-09-15T01:56:18.735Z,83.18
2022-09-15T01:57:18.718Z,83.73
2022-09-15T01:58:18.788Z,83.83
2022-09-15T01:59:18.693Z,84.55
2022-09-15T02:00:18.674Z,84.69
2022-09-15T02:01:18.693Z,84.08
2022-09-15T02:02:18.660Z,84.78
2022-09-15T02:03:18.643Z,83.40
2022-09-15T02:04:18.652Z,82.50
2022-09-15T02:05:18.615Z,81.88
2022-09-15T02:06:18.596Z,81.99
2022-09-15T02:07:18.580Z,82.19
2022-09-15T02:08:18.602Z,81.48
2022-09-15T02:09:18.576Z,81.07
2022-09-15T02:10:18.647Z,80.57
2022-09-15T02:11:18.534Z,79.65
2022-09-15T02:12:18.569Z,80.43
2022-09-15T02:13:18.570Z,81.48
2022-09-15T02:14:18.585Z,81.88
2022-09-15T02:15:18.544Z,81.78
2022-09-15T02:16:18.551Z,81.99
2022-09-15T02:17:18.458Z,80.26
2022-09-15T02:18:18.443Z,78.94
2022-09-15T02:19:18.429Z,78.53
2022-09-15T02:20:18.424Z,78.23
2022-09-15T02:21:18.425Z,78.19
2022-09-15T02:22:18.428Z,77.48
2022-09-15T02:23:18.419Z,75.73
2022-09-15T02:24:18.387Z,75.32
2022-09-15T02:25:18.377Z,74.81
2022-09-15T02:26:18.347Z,74.41
2022-09-15T02:27:18.345Z,74.41
2022-09-15T02:28:18.377Z,74.61
2022-09-15T02:29:18.320Z,74.81
2022-09-15T02:30:18.313Z,75.01
2022-09-15T02:31:18.341Z,75.42
2022-09-15T02:32:18.284Z,75.82
2022-09-15T02:33:18.319Z,74.81
2022-09-15T02:34:18.378Z,74.21
2022-09-15T02:35:18.249Z,74.57
2022-09-15T02:36:18.236Z,75.08
2022-09-15T02:37:18.227Z,75.28
2022-09-15T02:38:18.218Z,75.69
2022-09-15T02:39:18.315Z,74.48
2022-09-15T02:40:18.454Z,72.96
2022-09-15T02:41:18.245Z,72.04
2022-09-15T02:42:18.288Z,70.89
2022-09-15T02:43:18.275Z,70.39
2022-09-15T02:44:18.228Z,70.69
2022-09-15T02:45:18.395Z,70.59
2022-09-15T02:46:18.252Z,69.88
2022-09-15T02:47:18.208Z,69.48
2022-09-15T02:48:18.237Z,69.14
2022-09-15T02:49:18.416Z,70.05
2022-09-15T02:50:18.187Z,71.06
2022-09-15T02:51:18.116Z,71.57
2022-09-15T02:52:18.224Z,71.26
2022-09-15T02:53:18.081Z,71.67
2022-09-15T02:54:18.050Z,71.67
2022-09-15T02:55:18.032Z,69.04
2022-09-15T02:56:18.006Z,68.33
2022-09-15T02:57:18.003Z,68.63
2022-09-15T02:58:18.064Z,69.34
2022-09-15T02:59:17.973Z,69.04
2022-09-15T03:00:17.964Z,69.34
2022-09-15T03:01:18.028Z,69.24
2022-09-15T03:02:17.988Z,67.72
2022-09-15T03:03:17.947Z,67.22
2022-09-15T03:04:17.966Z,67.82
2022-09-15T03:05:17.908Z,68.43
2022-09-15T03:06:17.909Z,68.23
2022-09-15T03:07:17.886Z,69.24
2022-09-15T03:08:17.879Z,69.65
2022-09-15T03:09:17.866Z,69.74
2022-09-15T03:10:17.883Z,68.10
2022-09-15T03:11:17.847Z,68.50
2022-09-15T03:12:17.831Z,68.70
2022-09-15T03:13:17.819Z,69.41
2022-09-15T03:14:17.805Z,68.63
2022-09-15T03:15:17.816Z,67.52
2022-09-15T03:16:17.890Z,67.72
2022-09-15T03:17:17.767Z,68.63
2022-09-15T03:18:17.756Z,69.44
2022-09-15T03:19:17.744Z,68.77
2022-09-15T03:20:17.729Z,67.72
2022-09-15T03:21:17.731Z,67.85
2022-09-15T03:22:17.757Z,68.66
2022-09-15T03:23:17.708Z,69.27
2022-09-15T03:24:17.700Z,68.36
2022-09-15T03:25:17.680Z,68.36
2022-09-15T03:26:17.668Z,68.36
2022-09-15T03:27:17.662Z,67.96
2022-09-15T03:28:17.673Z,67.25
2022-09-15T03:29:17.636Z,67.05
2022-09-15T03:30:17.625Z,67.35
2022-09-15T03:31:17.645Z,67.01
2022-09-15T03:32:17.640Z,67.25
2022-09-15T03:33:17.605Z,67.05
2022-09-15T03:34:17.608Z,66.50
2022-09-15T03:35:17.567Z,67.11
2022-09-15T03:36:17.556Z,66.81
2022-09-15T03:37:17.545Z,66.00
2022-09-15T03:38:17.525Z,66.41
2022-09-15T03:39:17.527Z,66.71
2022-09-15T03:40:17.694Z,66.91
2022-09-15T03:41:17.494Z,69.24
2022-09-15T03:42:17.489Z,70.36
2022-09-15T03:43:18.801Z,70.05
2022-09-15T03:44:17.457Z,70.15
2022-09-15T03:45:17.472Z,69.95
2022-09-15T03:46:17.518Z,68.53
2022-09-15T03:47:17.430Z,68.43
2022-09-15T03:48:17.421Z,68.43
2022-09-15T03:49:17.404Z,67.93
2022-09-15T03:50:17.400Z,67.85
2022-09-15T03:51:17.389Z,68.77
2022-09-15T03:52:17.402Z,69.27
2022-09-15T03:53:17.401Z,70.08
2022-09-15T03:54:17.354Z,72.92
2022-09-15T03:55:17.354Z,75.45
2022-09-15T03:56:17.333Z,77.61
2022-09-15T03:57:17.327Z,77.31
2022-09-15T03:58:17.348Z,77.45
2022-09-15T03:59:17.292Z,76.84
2022-09-15T04:00:17.284Z,76.57
2022-09-15T04:01:17.323Z,77.69
2022-09-15T04:02:17.310Z,80.57
2022-09-15T04:03:17.254Z,82.33
2022-09-15T04:04:17.268Z,82.84
2022-09-15T04:05:17.232Z,83.83
2022-09-15T04:06:17.214Z,86.10
2022-09-15T04:07:17.209Z,88.18
2022-09-15T04:08:17.201Z,89.54
2022-09-15T04:09:17.198Z,90.05
2022-09-15T04:10:17.632Z,89.75
2022-09-15T04:11:17.170Z,89.75
2022-09-15T04:12:17.142Z,89.75
2022-09-15T04:13:17.147Z,90.22
2022-09-15T04:14:17.124Z,89.50
2022-09-15T04:15:17.148Z,89.61
2022-09-15T04:16:17.208Z,88.69
2022-09-15T04:17:17.091Z,89.00
2022-09-15T04:18:17.078Z,88.75
2022-09-15T04:19:17.068Z,88.04
2022-09-15T04:20:17.054Z,87.89
2022-09-15T04:21:17.085Z,86.13
2022-09-15T04:22:17.972Z,85.62
2022-09-15T04:23:17.022Z,84.09
2022-09-15T04:24:17.014Z,82.06
2022-09-15T04:25:17.009Z,81.35
2022-09-15T04:26:16.997Z,80.40
2022-09-15T04:27:17.064Z,78.47
2022-09-15T04:28:16.969Z,77.52
2022-09-15T04:29:17.002Z,76.40
2022-09-15T04:30:16.945Z,75.39
2022-09-15T04:31:16.984Z,74.78
2022-09-15T04:32:16.915Z,74.54
2022-09-15T04:33:16.956Z,75.05
2022-09-15T04:34:16.889Z,75.76
2022-09-15T04:35:16.958Z,76.20
2022-09-15T04:36:16.876Z,76.40
2022-09-15T04:37:16.864Z,76.91
2022-09-15T04:38:16.844Z,77.01
2022-09-15T04:39:16.874Z,77.62
2022-09-15T04:40:16.948Z,76.51
2022-09-15T04:41:16.823Z,75.90
2022-09-15T04:42:16.805Z,75.59
2022-09-15T04:43:16.792Z,76.00
2022-09-15T04:44:16.785Z,75.59
2022-09-15T04:45:17.239Z,74.17
2022-09-15T04:46:16.914Z,73.33
2022-09-15T04:47:16.744Z,72.52
2022-09-15T04:48:16.737Z,72.52
2022-09-15T04:49:16.726Z,73.16
2022-09-15T04:50:16.705Z,73.77
2022-09-15T04:51:16.740Z,74.78
2022-09-15T04:52:16.684Z,74.78
2022-09-15T04:53:16.677Z,75.19
2022-09-15T04:54:16.662Z,74.14
2022-09-15T04:55:16.675Z,73.12
2022-09-15T04:56:16.642Z,73.43
2022-09-15T04:57:16.671Z,73.12
2022-09-15T04:58:16.624Z,73.12
2022-09-15T04:59:16.610Z,73.53
2022-09-15T05:00:16.608Z,71.70
2022-09-15T05:01:16.664Z,69.88
2022-09-15T05:02:16.703Z,70.08
2022-09-15T05:03:16.610Z,70.48
2022-09-15T05:04:16.546Z,71.30
2022-09-15T05:05:16.553Z,71.70
2022-09-15T05:06:16.543Z,72.41
2022-09-15T05:07:16.514Z,72.41
2022-09-15T05:08:16.499Z,72.72
2022-09-15T05:09:16.529Z,72.92
2022-09-15T05:10:16.486Z,72.28
2022-09-15T05:11:16.473Z,72.17
2022-09-15T05:12:16.472Z,72.58
2022-09-15T05:13:16.490Z,72.48
2022-09-15T05:14:16.442Z,73.09
2022-09-15T05:15:16.459Z,73.70
2022-09-15T05:16:16.469Z,73.80
2022-09-15T05:17:16.403Z,73.76
2022-09-15T05:18:16.403Z,74.77
2022-09-15T05:19:16.385Z,75.18
2022-09-15T05:20:16.366Z,74.44
2022-09-15T05:21:16.405Z,74.04
2022-09-15T05:22:16.367Z,73.76
2022-09-15T05:23:16.335Z,73.66
2022-09-15T05:24:16.327Z,74.04
2022-09-15T05:25:16.343Z,74.64
2022-09-15T05:26:16.308Z,74.04
2022-09-15T05:27:16.329Z,74.24
2022-09-15T05:28:16.283Z,74.04
2022-09-15T05:29:22.339Z,74.33
2022-09-15T05:30:37.737Z,74.64
2022-09-15T05:32:26.718Z,75.15
2022-09-15T05:33:27.681Z,73.32
2022-09-15T05:34:27.662Z,73.22
2022-09-15T05:35:27.653Z,73.32
2022-09-15T05:36:27.694Z,72.61
2022-09-15T05:37:27.678Z,72.52
2022-09-15T05:38:27.620Z,72.61
2022-09-15T05:39:27.607Z,73.02
2022-09-15T05:40:27.667Z,72.81
2022-09-15T05:41:27.586Z,72.31
2022-09-15T05:42:27.613Z,73.12
2022-09-15T05:43:27.600Z,75.85
2022-09-15T05:44:27.545Z,81.06
2022-09-15T05:45:27.540Z,84.93
2022-09-15T05:46:27.650Z,90.94
2022-09-15T05:47:27.520Z,95.30
2022-09-15T05:48:27.503Z,97.17
2022-09-15T05:49:27.581Z,97.73
2022-09-15T05:50:27.477Z,96.51
2022-09-15T05:51:27.480Z,96.55
2022-09-15T05:52:27.463Z,96.96
2022-09-15T05:53:27.455Z,97.16
2022-09-15T05:54:27.450Z,97.67
2022-09-15T05:55:27.477Z,98.08
2022-09-15T05:56:27.423Z,97.67
2022-09-15T05:57:27.665Z,97.53
2022-09-15T05:58:27.392Z,97.32
2022-09-15T05:59:27.386Z,93.86
2022-09-15T06:00:27.420Z,92.74
2022-09-15T06:01:27.560Z,91.31
2022-09-15T06:02:27.396Z,91.72
2022-09-15T06:03:30.774Z,91.72
2022-09-15T06:04:27.319Z,92.13
2022-09-15T06:05:27.323Z,91.93
2022-09-15T06:06:27.297Z,92.23
2022-09-15T06:07:27.324Z,91.38
2022-09-15T06:08:27.276Z,91.78
2022-09-15T06:09:27.267Z,91.27
2022-09-15T06:10:27.307Z,90.77
2022-09-15T06:11:27.244Z,90.72
2022-09-15T06:12:27.234Z,90.42
2022-09-15T06:13:27.255Z,89.70
2022-09-15T06:14:27.210Z,90.01
2022-09-15T06:15:27.210Z,91.53
2022-09-15T06:16:27.249Z,93.16
2022-09-15T06:17:27.182Z,93.87
2022-09-15T06:18:27.166Z,95.20
2022-09-15T06:19:27.204Z,97.02
2022-09-15T06:20:27.331Z,97.98
2022-09-15T06:21:27.160Z,99.71
2022-09-15T06:22:27.133Z,99.99
2022-09-15T06:23:27.121Z,99.99
2022-09-15T06:24:27.130Z,99.99
2022-09-15T06:25:27.120Z,99.99
2022-09-15T06:26:27.074Z,99.99
2022-09-15T06:27:27.065Z,99.99
2022-09-15T06:28:27.067Z,99.99
2022-09-15T06:29:27.043Z,99.99
2022-09-15T06:30:27.028Z,99.99
2022-09-15T06:31:27.118Z,99.99
2022-09-15T06:32:27.012Z,99.99
2022-09-15T06:33:27.022Z,99.99
2022-09-15T06:34:26.979Z,99.99
2022-09-15T06:35:26.988Z,99.99
2022-09-15T06:36:26.960Z,99.99
2022-09-15T06:37:27.003Z,99.99
2022-09-15T06:38:26.936Z,99.99
2022-09-15T06:39:26.931Z,99.99
2022-09-15T06:40:27.175Z,99.99
2022-09-15T06:41:26.914Z,99.99
2022-09-15T06:42:26.896Z,99.99
2022-09-15T06:43:27.008Z,99.99
2022-09-15T06:44:26.866Z,99.99
2022-09-15T06:45:26.863Z,99.99
2022-09-15T06:46:26.889Z,99.99
2022-09-15T06:47:26.832Z,99.99
2022-09-15T06:48:26.821Z,99.99
2022-09-15T06:49:26.883Z,99.99
2022-09-15T06:50:26.799Z,99.99
2022-09-15T06:51:26.790Z,99.99
2022-09-15T06:52:26.777Z,99.99
2022-09-15T06:53:26.763Z,99.99
2022-09-15T06:54:26.764Z,99.99
2022-09-15T06:55:26.782Z,99.99
2022-09-15T06:56:26.732Z,99.99
2022-09-15T06:57:26.721Z,99.99
2022-09-15T06:58:26.707Z,98.59
2022-09-15T06:59:26.703Z,98.18
2022-09-15T07:00:26.694Z,98.69
2022-09-15T07:01:26.711Z,98.79
2022-09-15T07:02:26.822Z,98.90
2022-09-15T07:03:26.830Z,97.57
2022-09-15T07:04:26.641Z,97.16
2022-09-15T07:05:26.632Z,96.45
2022-09-15T07:06:26.615Z,96.25
2022-09-15T07:07:26.643Z,96.55
2022-09-15T07:08:26.592Z,97.63
2022-09-15T07:09:26.588Z,97.73
2022-09-15T07:10:26.653Z,95.59
2022-09-15T07:11:26.576Z,95.29
2022-09-15T07:12:26.552Z,94.47
2022-09-15T07:13:26.587Z,94.27
2022-09-15T07:14:26.527Z,92.74
2022-09-15T07:15:26.523Z,94.43
2022-09-15T07:16:26.553Z,95.14
2022-09-15T07:17:26.496Z,94.43
2022-09-15T07:18:26.494Z,94.93
2022-09-15T07:19:26.497Z,91.58
2022-09-15T07:20:26.455Z,93.01
2022-09-15T07:21:26.445Z,91.68
2022-09-15T07:22:26.438Z,91.78
2022-09-15T07:23:26.420Z,91.48
2022-09-15T07:24:26.415Z,90.92
2022-09-15T07:25:26.438Z,92.30
2022-09-15T07:26:26.389Z,90.27
2022-09-15T07:27:26.382Z,89.97
2022-09-15T07:28:26.366Z,90.23
2022-09-15T07:29:26.360Z,90.23
2022-09-15T07:30:26.349Z,90.44
2022-09-15T07:31:26.403Z,91.00
2022-09-15T07:32:26.320Z,89.98
2022-09-15T07:33:26.321Z,87.79
2022-09-15T07:34:26.295Z,88.60
2022-09-15T07:35:26.287Z,88.95
2022-09-15T07:36:26.298Z,91.80
2022-09-15T07:37:26.312Z,93.12
2022-09-15T07:38:26.250Z,92.91
2022-09-15T07:39:26.239Z,92.10
2022-09-15T07:40:26.337Z,92.00
2022-09-15T07:41:26.220Z,92.00
2022-09-15T07:42:26.211Z,92.51
2022-09-15T07:43:26.238Z,92.71
2022-09-15T07:44:26.183Z,92.96
2022-09-15T07:45:26.241Z,93.73
2022-09-15T07:46:26.163Z,94.34
2022-09-15T07:47:26.162Z,94.34
2022-09-15T07:48:26.668Z,94.44
2022-09-15T07:49:26.415Z,93.63
2022-09-15T07:50:26.113Z,94.34
2022-09-15T07:51:26.116Z,92.47
2022-09-15T07:52:26.085Z,91.55
2022-09-15T07:53:26.086Z,91.82
2022-09-15T07:54:26.311Z,91.30
2022-09-15T07:55:26.147Z,90.59
2022-09-15T07:56:26.042Z,90.49
2022-09-15T07:57:26.037Z,88.76
2022-09-15T07:58:26.025Z,89.17
2022-09-15T07:59:26.007Z,89.28
2022-09-15T08:00:26.065Z,89.84
2022-09-15T08:01:26.088Z,89.13
2022-09-15T08:02:26.057Z,89.23
2022-09-15T08:03:25.967Z,88.32
2022-09-15T08:04:25.950Z,87.10
2022-09-15T08:05:25.950Z,87.92
2022-09-15T08:06:25.931Z,88.52
2022-09-15T08:07:25.972Z,88.93
2022-09-15T08:08:26.221Z,88.52
2022-09-15T08:09:25.906Z,88.82
2022-09-15T08:10:25.900Z,89.43
2022-09-15T08:11:25.934Z,89.03
2022-09-15T08:12:25.873Z,87.71
2022-09-15T08:13:25.898Z,89.13
2022-09-15T08:14:25.843Z,89.33
2022-09-15T08:15:25.829Z,88.21
2022-09-15T08:16:25.894Z,88.46
2022-09-15T08:17:25.807Z,89.64
2022-09-15T08:18:25.798Z,88.56
2022-09-15T08:19:25.825Z,87.34
2022-09-15T08:20:25.765Z,85.01
2022-09-15T08:21:25.767Z,83.38
2022-09-15T08:22:25.744Z,84.05
2022-09-15T08:23:25.738Z,80.80
2022-09-15T08:24:25.725Z,81.01
2022-09-15T08:25:25.808Z,81.41
2022-09-15T08:26:25.703Z,81.27
2022-09-15T08:27:25.690Z,80.77
2022-09-15T08:28:25.685Z,81.48
2022-09-15T08:29:25.674Z,82.15
2022-09-15T08:30:25.659Z,83.12
2022-09-15T08:31:25.717Z,84.50
2022-09-15T08:32:25.637Z,83.25
2022-09-15T08:33:25.619Z,82.95
2022-09-15T08:34:25.622Z,83.04
2022-09-15T08:35:25.605Z,82.44
2022-09-15T08:36:25.640Z,84.56
2022-09-15T08:37:25.610Z,84.47
2022-09-15T08:38:25.574Z,82.54
2022-09-15T08:39:25.559Z,81.16
2022-09-15T08:40:25.566Z,80.29
2022-09-15T08:41:25.532Z,81.50
2022-09-15T08:42:25.543Z,82.01
2022-09-15T08:43:25.543Z,82.72
2022-09-15T08:44:25.518Z,79.88
2022-09-15T08:45:25.494Z,79.38
2022-09-15T08:46:25.562Z,79.17
2022-09-15T08:47:25.460Z,80.19
2022-09-15T08:48:25.450Z,78.22
2022-09-15T08:49:41.204Z,79.50
2022-09-15T08:50:25.432Z,76.46
2022-09-15T08:51:25.420Z,76.87
2022-09-15T08:52:25.414Z,75.62
2022-09-15T08:53:25.398Z,77.34
2022-09-15T08:54:25.428Z,76.19
2022-09-15T08:55:25.438Z,75.68
2022-09-15T08:56:25.374Z,77.37
2022-09-15T08:57:25.353Z,75.75
2022-09-15T08:58:25.342Z,76.59
2022-09-15T08:59:25.340Z,75.58
2022-09-15T09:00:25.328Z,76.43
2022-09-15T09:01:25.492Z,75.72
2022-09-15T09:02:25.359Z,77.03
2022-09-15T09:03:25.293Z,77.95
2022-09-15T09:04:25.269Z,79.57
2022-09-15T09:05:25.258Z,79.46
2022-09-15T09:06:25.265Z,79.77
2022-09-15T09:07:25.268Z,81.12
2022-09-15T09:08:25.235Z,82.68
2022-09-15T09:09:25.214Z,90.86
2022-09-15T09:10:25.200Z,95.82
2022-09-15T09:11:25.210Z,97.89
2022-09-15T09:12:25.241Z,99.27
2022-09-15T09:13:25.210Z,99.88
2022-09-15T09:14:25.160Z,99.82
2022-09-15T09:15:25.187Z,99.62
2022-09-15T09:16:25.141Z,99.62
2022-09-15T09:17:25.127Z,99.82
2022-09-15T09:18:25.133Z,99.99
2022-09-15T09:19:27.985Z,99.99
2022-09-15T09:20:25.099Z,99.99
2022-09-15T09:21:25.074Z,99.99
2022-09-15T09:22:25.088Z,99.31
2022-09-15T09:23:25.051Z,98.86
2022-09-15T09:24:25.047Z,97.48
2022-09-15T09:25:28.020Z,97.44
2022-09-15T09:26:25.045Z,97.53
2022-09-15T09:27:25.020Z,98.19
2022-09-15T09:28:25.001Z,99.52
2022-09-15T09:29:24.988Z,99.97
2022-09-15T09:30:24.981Z,99.99
2022-09-15T09:31:25.110Z,99.99
2022-09-15T09:32:25.073Z,99.99
2022-09-15T09:33:24.939Z,99.99
2022-09-15T09:34:24.942Z,99.99
2022-09-15T09:35:24.926Z,99.99
2022-09-15T09:36:24.922Z,99.99
2022-09-15T09:37:24.931Z,99.99
2022-09-15T09:38:24.890Z,99.77
2022-09-15T09:39:24.871Z,99.99
2022-09-15T09:40:24.933Z,99.66
2022-09-15T09:41:24.853Z,99.99
2022-09-15T09:42:24.957Z,99.99
2022-09-15T09:43:25.126Z,99.99
2022-09-15T09:44:24.827Z,99.87
2022-09-15T09:45:24.816Z,99.56
2022-09-15T09:46:24.850Z,99.21
2022-09-15T09:47:24.784Z,99.62
2022-09-15T09:48:24.787Z,99.57
2022-09-15T09:49:24.800Z,99.63
2022-09-15T09:50:24.750Z,99.42
2022-09-15T09:51:24.735Z,99.42
2022-09-15T09:52:24.834Z,99.11
2022-09-15T09:53:25.737Z,98.91
2022-09-15T09:54:24.708Z,96.42
2022-09-15T09:55:24.742Z,98.05
2022-09-15T09:56:24.684Z,96.97
2022-09-15T09:57:24.675Z,96.56
2022-09-15T09:58:24.655Z,97.48
2022-09-15T09:59:24.640Z,96.97
2022-09-15T10:00:24.635Z,94.43
2022-09-15T10:01:24.830Z,94.63
2022-09-15T10:02:24.613Z,96.42
2022-09-15T10:03:28.033Z,92.45
2022-09-15T10:04:24.679Z,90.92
2022-09-15T10:05:24.575Z,93.32
2022-09-15T10:06:24.571Z,90.11
2022-09-15T10:07:24.624Z,90.42
2022-09-15T10:08:24.551Z,90.62
2022-09-15T10:09:24.535Z,90.11
2022-09-15T10:10:24.522Z,91.03
2022-09-15T10:11:24.506Z,91.84
2022-09-15T10:12:24.501Z,92.82
2022-09-15T10:13:24.515Z,88.85
2022-09-15T10:14:24.484Z,87.84
2022-09-15T10:15:24.475Z,89.01
2022-09-15T10:16:25.273Z,87.99
2022-09-15T10:17:24.442Z,85.76
2022-09-15T10:18:24.444Z,86.27
2022-09-15T10:19:24.454Z,86.63
2022-09-15T10:20:24.412Z,87.61
2022-09-15T10:21:24.392Z,87.30
2022-09-15T10:22:24.393Z,88.32
2022-09-15T10:23:24.372Z,88.32
2022-09-15T10:24:24.373Z,87.40
2022-09-15T10:25:24.387Z,86.13
2022-09-15T10:26:24.389Z,88.97
2022-09-15T10:27:24.330Z,90.49
2022-09-15T10:28:24.323Z,90.49
2022-09-15T10:29:24.320Z,91.06
2022-09-15T10:30:24.292Z,90.90
2022-09-15T10:31:24.382Z,91.06
2022-09-15T10:32:25.400Z,90.86
2022-09-15T10:33:24.259Z,90.25
2022-09-15T10:34:24.250Z,90.35
2022-09-15T10:35:24.239Z,88.87
2022-09-15T10:36:24.237Z,89.23
2022-09-15T10:37:24.261Z,88.52
2022-09-15T10:38:24.200Z,87.00
2022-09-15T10:39:24.191Z,87.30
2022-09-15T10:40:24.205Z,88.28
2022-09-15T10:41:24.171Z,87.87
2022-09-15T10:42:24.159Z,86.21
2022-09-15T10:43:24.178Z,85.66
2022-09-15T10:44:24.133Z,85.05
2022-09-15T10:45:24.164Z,83.43
2022-09-15T10:46:24.218Z,83.80
2022-09-15T10:47:24.102Z,84.30
2022-09-15T10:48:24.101Z,82.07
2022-09-15T10:49:24.378Z,81.97
2022-09-15T10:50:24.078Z,84.81
2022-09-15T10:51:24.053Z,83.37
2022-09-15T10:52:24.044Z,82.59
2022-09-15T10:53:24.040Z,84.16
2022-09-15T10:54:24.027Z,84.66
2022-09-15T10:55:42.214Z,85.21
2022-09-15T10:56:24.012Z,88.10
2022-09-15T10:57:24.042Z,90.27
2022-09-15T10:58:23.982Z,91.74
2022-09-15T10:59:23.961Z,92.86
2022-09-15T11:00:23.955Z,92.14
2022-09-15T11:01:24.051Z,90.62
2022-09-15T11:02:23.996Z,91.23
2022-09-15T11:03:23.956Z,89.81
2022-09-15T11:04:23.911Z,89.00
2022-09-15T11:05:23.900Z,87.06
2022-09-15T11:06:23.893Z,87.06
2022-09-15T11:07:23.964Z,86.71
2022-09-15T11:08:23.864Z,87.49
2022-09-15T11:09:23.848Z,85.41
2022-09-15T11:10:23.842Z,84.26
2022-09-15T11:11:23.833Z,83.20
2022-09-15T11:12:28.407Z,85.39
2022-09-15T11:13:23.870Z,83.17
2022-09-15T11:14:23.805Z,84.64
2022-09-15T11:15:23.783Z,83.37
2022-09-15T11:16:23.839Z,84.24
2022-09-15T11:17:23.766Z,82.35
2022-09-15T11:18:23.763Z,82.15
2022-09-15T11:19:23.791Z,81.13
2022-09-15T11:20:23.735Z,83.12
2022-09-15T11:21:23.718Z,80.02
2022-09-15T11:22:23.719Z,81.60
2022-09-15T11:23:23.696Z,81.60
2022-09-15T11:24:23.689Z,81.06
2022-09-15T11:25:23.703Z,82.17
2022-09-15T11:26:23.711Z,81.87
2022-09-15T11:27:23.647Z,80.08
2022-09-15T11:28:24.649Z,78.93
2022-09-15T11:29:23.634Z,80.79
2022-09-15T11:30:23.620Z,79.74
2022-09-15T11:31:23.696Z,79.74
2022-09-15T11:32:23.594Z,79.88
2022-09-15T11:33:23.584Z,80.39
2022-09-15T11:34:23.570Z,81.10
2022-09-15T11:35:23.559Z,81.97
2022-09-15T11:36:23.558Z,81.93
2022-09-15T11:37:23.574Z,80.62
2022-09-15T11:38:23.528Z,80.88
2022-09-15T11:39:23.511Z,80.47
2022-09-15T11:40:23.534Z,79.33
2022-09-15T11:41:23.488Z,78.72
2022-09-15T11:42:23.480Z,78.21
2022-09-15T11:43:23.500Z,79.06
2022-09-15T11:44:23.459Z,79.00
2022-09-15T11:45:23.442Z,77.88
2022-09-15T11:46:24.451Z,79.06
2022-09-15T11:47:23.423Z,76.83
2022-09-15T11:48:23.442Z,77.14
2022-09-15T11:49:23.439Z,77.40
2022-09-15T11:50:23.392Z,77.71
2022-09-15T11:51:23.379Z,77.44
2022-09-15T11:52:23.365Z,76.32
2022-09-15T11:53:23.353Z,78.68
2022-09-15T11:54:23.346Z,77.26
2022-09-15T11:55:23.369Z,76.35
2022-09-15T11:56:23.323Z,72.88
2022-09-15T11:57:23.869Z,74.44
2022-09-15T11:58:23.299Z,76.56
2022-09-15T11:59:23.282Z,77.95
2022-09-15T12:00:23.277Z,80.63
2022-09-15T12:01:23.310Z,80.19
2022-09-15T12:02:23.339Z,80.54
2022-09-15T12:03:23.359Z,82.17
2022-09-15T12:04:23.489Z,82.78
2022-09-15T12:05:23.218Z,84.03
2022-09-15T12:06:23.210Z,88.40
2022-09-15T12:07:23.229Z,89.46
2022-09-15T12:08:23.196Z,90.31
2022-09-15T12:09:23.180Z,92.49
2022-09-15T12:10:23.194Z,94.47
2022-09-15T12:11:23.162Z,95.18
2022-09-15T12:12:23.194Z,96.15
2022-09-15T12:13:23.188Z,96.66
2022-09-15T12:14:23.116Z,97.73
2022-09-15T12:15:23.103Z,96.41
2022-09-15T12:16:23.146Z,95.64
2022-09-15T12:17:23.148Z,96.20
2022-09-15T12:18:38.187Z,95.69
2022-09-15T12:19:23.099Z,96.61
2022-09-15T12:20:23.053Z,95.65
2022-09-15T12:21:23.036Z,96.97
2022-09-15T12:22:23.033Z,95.70
2022-09-15T12:23:23.019Z,95.15
2022-09-15T12:24:23.014Z,94.60
2022-09-15T12:25:23.029Z,94.57
2022-09-15T12:26:23.001Z,91.52
2022-09-15T12:27:22.981Z,89.90
2022-09-15T12:28:23.055Z,91.89
2022-09-15T12:29:29.445Z,90.62
2022-09-15T12:30:22.954Z,91.17
2022-09-15T12:31:22.994Z,92.13
2022-09-15T12:32:22.916Z,93.09
2022-09-15T12:33:22.912Z,94.00
2022-09-15T12:34:22.887Z,94.96
2022-09-15T12:35:22.881Z,97.30
2022-09-15T12:36:22.860Z,99.99
2022-09-15T12:37:22.886Z,99.99
2022-09-15T12:38:22.842Z,99.99
2022-09-15T12:39:22.834Z,99.99
2022-09-15T12:40:22.885Z,99.99
2022-09-15T12:41:22.808Z,99.99
2022-09-15T12:42:23.057Z,99.99
2022-09-15T12:43:22.830Z,99.99
2022-09-15T12:44:22.773Z,99.99
2022-09-15T12:45:22.768Z,99.99
2022-09-15T12:46:22.827Z,99.99
2022-09-15T12:47:22.743Z,99.99
2022-09-15T12:48:22.731Z,99.99
2022-09-15T12:49:22.753Z,99.99
2022-09-15T12:50:22.701Z,99.99
2022-09-15T12:51:22.717Z,99.99
2022-09-15T12:52:22.689Z,99.99
2022-09-15T12:53:22.685Z,99.31